sensor_id;sensor_type;location;lat;lon;timestamp;P1;durP1;ratioP1;P2;durP2;ratioP2
47335;SDS011;33068;51.990;5.926;2022-10-26T00:00:47;22.88;;;11.30;;
47335;SDS011;33068;51.990;5.926;2022-10-26T00:03:15;21.02;;;10.40;;
47335;SDS011;33068;51.990;5.926;2022-10-26T00:05:44;17.67;;;10.45;;
47335;SDS011;33068;51.990;5.926;2022-10-26T00:08:11;18.35;;;10.43;;
47335;SDS011;33068;51.990;5.926;2022-10-26T00:10:38;16.95;;;10.10;;
47335;SDS011;33068;51.990;5.926;2022-10-26T00:13:07;18.80;;;10.55;;
47335;SDS011;33068;51.990;5.926;2022-10-26T00:15:38;16.58;;;9.27;;
47335;SDS011;33068;51.990;5.926;2022-10-26T00:18:06;22.05;;;9.93;;
47335;SDS011;33068;51.990;5.926;2022-10-26T00:20:34;17.40;;;9.55;;
47335;SDS011;33068;51.990;5.926;2022-10-26T00:23:02;17.27;;;10.20;;
47335;SDS011;33068;51.990;5.926;2022-10-26T00:25:29;14.75;;;9.57;;
47335;SDS011;33068;51.990;5.926;2022-10-26T00:27:56;18.00;;;10.48;;
47335;SDS011;33068;51.990;5.926;2022-10-26T00:30:23;22.80;;;10.75;;
47335;SDS011;33068;51.990;5.926;2022-10-26T00:32:51;17.27;;;9.95;;
47335;SDS011;33068;51.990;5.926;2022-10-26T00:35:18;18.42;;;10.45;;
47335;SDS011;33068;51.990;5.926;2022-10-26T00:37:45;18.88;;;10.35;;
47335;SDS011;33068;51.990;5.926;2022-10-26T00:40:14;23.52;;;12.05;;
47335;SDS011;33068;51.990;5.926;2022-10-26T00:42:41;18.10;;;9.80;;
47335;SDS011;33068;51.990;5.926;2022-10-26T00:45:14;20.92;;;10.57;;
47335;SDS011;33068;51.990;5.926;2022-10-26T00:47:46;18.00;;;10.45;;
47335;SDS011;33068;51.990;5.926;2022-10-26T00:50:18;18.90;;;10.60;;
47335;SDS011;33068;51.990;5.926;2022-10-26T00:52:47;18.20;;;10.43;;
47335;SDS011;33068;51.990;5.926;2022-10-26T00:55:18;19.10;;;10.50;;
47335;SDS011;33068;51.990;5.926;2022-10-26T00:57:48;17.30;;;10.25;;
47335;SDS011;33068;51.990;5.926;2022-10-26T01:00:18;18.52;;;10.25;;
47335;SDS011;33068;51.990;5.926;2022-10-26T01:02:45;22.67;;;9.88;;
47335;SDS011;33068;51.990;5.926;2022-10-26T01:05:15;21.45;;;10.60;;
47335;SDS011;33068;51.990;5.926;2022-10-26T01:07:43;16.40;;;9.73;;
47335;SDS011;33068;51.990;5.926;2022-10-26T01:10:12;20.33;;;10.13;;
47335;SDS011;33068;51.990;5.926;2022-10-26T01:12:41;17.52;;;9.63;;
47335;SDS011;33068;51.990;5.926;2022-10-26T01:15:08;18.65;;;9.85;;
47335;SDS011;33068;51.990;5.926;2022-10-26T01:17:40;16.45;;;9.10;;
47335;SDS011;33068;51.990;5.926;2022-10-26T01:20:37;17.92;;;9.23;;
47335;SDS011;33068;51.990;5.926;2022-10-26T01:23:21;18.85;;;10.00;;
47335;SDS011;33068;51.990;5.926;2022-10-26T01:26:02;20.33;;;11.38;;
47335;SDS011;33068;51.990;5.926;2022-10-26T01:28:54;24.08;;;10.50;;
47335;SDS011;33068;51.990;5.926;2022-10-26T01:31:38;17.73;;;9.48;;
47335;SDS011;33068;51.990;5.926;2022-10-26T01:34:09;20.00;;;9.35;;
47335;SDS011;33068;51.990;5.926;2022-10-26T01:36:43;15.10;;;9.48;;
47335;SDS011;33068;51.990;5.926;2022-10-26T01:39:18;22.40;;;9.38;;
47335;SDS011;33068;51.990;5.926;2022-10-26T01:41:50;17.98;;;9.48;;
47335;SDS011;33068;51.990;5.926;2022-10-26T01:44:22;20.13;;;10.25;;
47335;SDS011;33068;51.990;5.926;2022-10-26T01:46:56;18.23;;;10.00;;
47335;SDS011;33068;51.990;5.926;2022-10-26T01:49:25;20.60;;;10.23;;
47335;SDS011;33068;51.990;5.926;2022-10-26T01:51:54;14.27;;;9.43;;
47335;SDS011;33068;51.990;5.926;2022-10-26T01:54:21;18.88;;;8.88;;
47335;SDS011;33068;51.990;5.926;2022-10-26T01:56:48;19.85;;;9.80;;
47335;SDS011;33068;51.990;5.926;2022-10-26T01:59:25;13.60;;;9.82;;
47335;SDS011;33068;51.990;5.926;2022-10-26T02:02:21;18.60;;;10.85;;
47335;SDS011;33068;51.990;5.926;2022-10-26T02:11:00;20.67;;;9.55;;
47335;SDS011;33068;51.990;5.926;2022-10-26T02:13:38;15.60;;;9.63;;
47335;SDS011;33068;51.990;5.926;2022-10-26T02:16:14;17.10;;;8.60;;
47335;SDS011;33068;51.990;5.926;2022-10-26T02:18:49;17.40;;;9.77;;
47335;SDS011;33068;51.990;5.926;2022-10-26T02:21:24;19.55;;;9.70;;
47335;SDS011;33068;51.990;5.926;2022-10-26T02:23:55;18.55;;;9.68;;
47335;SDS011;33068;51.990;5.926;2022-10-26T02:26:26;14.10;;;9.70;;
47335;SDS011;33068;51.990;5.926;2022-10-26T02:28:55;18.90;;;9.95;;
47335;SDS011;33068;51.990;5.926;2022-10-26T02:31:25;14.85;;;10.23;;
47335;SDS011;33068;51.990;5.926;2022-10-26T02:33:54;16.50;;;8.65;;
47335;SDS011;33068;51.990;5.926;2022-10-26T02:36:26;21.10;;;9.43;;
47335;SDS011;33068;51.990;5.926;2022-10-26T02:38:55;22.05;;;10.70;;
47335;SDS011;33068;51.990;5.926;2022-10-26T02:41:24;20.40;;;9.63;;
47335;SDS011;33068;51.990;5.926;2022-10-26T02:43:55;17.25;;;10.00;;
47335;SDS011;33068;51.990;5.926;2022-10-26T02:46:25;17.50;;;9.80;;
47335;SDS011;33068;51.990;5.926;2022-10-26T02:48:55;16.95;;;9.20;;
47335;SDS011;33068;51.990;5.926;2022-10-26T02:51:24;21.52;;;9.52;;
47335;SDS011;33068;51.990;5.926;2022-10-26T02:53:56;16.20;;;8.95;;
47335;SDS011;33068;51.990;5.926;2022-10-26T02:56:28;18.77;;;9.57;;
47335;SDS011;33068;51.990;5.926;2022-10-26T02:58:59;19.25;;;10.02;;
47335;SDS011;33068;51.990;5.926;2022-10-26T03:01:31;18.80;;;10.27;;
47335;SDS011;33068;51.990;5.926;2022-10-26T03:04:01;20.90;;;9.90;;
47335;SDS011;33068;51.990;5.926;2022-10-26T03:06:29;18.33;;;9.82;;
47335;SDS011;33068;51.990;5.926;2022-10-26T03:08:56;17.30;;;9.10;;
47335;SDS011;33068;51.990;5.926;2022-10-26T03:11:23;18.42;;;8.68;;
47335;SDS011;33068;51.990;5.926;2022-10-26T03:13:50;20.67;;;8.95;;
47335;SDS011;33068;51.990;5.926;2022-10-26T03:16:17;17.33;;;8.68;;
47335;SDS011;33068;51.990;5.926;2022-10-26T03:18:44;23.13;;;10.20;;
47335;SDS011;33068;51.990;5.926;2022-10-26T03:21:12;22.00;;;9.43;;
47335;SDS011;33068;51.990;5.926;2022-10-26T03:23:39;15.95;;;8.80;;
47335;SDS011;33068;51.990;5.926;2022-10-26T03:26:07;17.33;;;8.73;;
47335;SDS011;33068;51.990;5.926;2022-10-26T03:28:35;18.02;;;9.10;;
47335;SDS011;33068;51.990;5.926;2022-10-26T03:31:02;17.38;;;9.52;;
47335;SDS011;33068;51.990;5.926;2022-10-26T03:33:29;18.88;;;9.90;;
47335;SDS011;33068;51.990;5.926;2022-10-26T03:35:57;14.95;;;8.10;;
47335;SDS011;33068;51.990;5.926;2022-10-26T03:38:25;19.83;;;9.38;;
47335;SDS011;33068;51.990;5.926;2022-10-26T03:40:52;17.90;;;9.50;;
47335;SDS011;33068;51.990;5.926;2022-10-26T03:43:19;17.90;;;9.10;;
47335;SDS011;33068;51.990;5.926;2022-10-26T03:45:46;14.95;;;8.93;;
47335;SDS011;33068;51.990;5.926;2022-10-26T03:48:13;15.68;;;7.85;;
47335;SDS011;33068;51.990;5.926;2022-10-26T03:50:40;19.67;;;8.88;;
47335;SDS011;33068;51.990;5.926;2022-10-26T03:53:08;14.73;;;9.25;;
47335;SDS011;33068;51.990;5.926;2022-10-26T03:55:36;17.27;;;8.52;;
47335;SDS011;33068;51.990;5.926;2022-10-26T03:58:03;14.98;;;8.57;;
47335;SDS011;33068;51.990;5.926;2022-10-26T04:00:30;17.50;;;8.60;;
47335;SDS011;33068;51.990;5.926;2022-10-26T04:02:58;16.17;;;9.20;;
47335;SDS011;33068;51.990;5.926;2022-10-26T04:05:26;21.70;;;9.00;;
47335;SDS011;33068;51.990;5.926;2022-10-26T04:07:54;12.23;;;8.20;;
47335;SDS011;33068;51.990;5.926;2022-10-26T04:10:22;19.63;;;8.75;;
47335;SDS011;33068;51.990;5.926;2022-10-26T04:12:51;19.13;;;9.10;;
47335;SDS011;33068;51.990;5.926;2022-10-26T04:15:19;17.50;;;8.63;;
47335;SDS011;33068;51.990;5.926;2022-10-26T04:17:46;23.90;;;9.02;;
47335;SDS011;33068;51.990;5.926;2022-10-26T04:20:13;15.32;;;8.32;;
47335;SDS011;33068;51.990;5.926;2022-10-26T04:22:41;15.70;;;8.13;;
47335;SDS011;33068;51.990;5.926;2022-10-26T04:25:08;21.50;;;8.95;;
47335;SDS011;33068;51.990;5.926;2022-10-26T04:27:37;12.65;;;7.97;;
47335;SDS011;33068;51.990;5.926;2022-10-26T04:30:07;17.48;;;9.02;;
47335;SDS011;33068;51.990;5.926;2022-10-26T04:32:34;18.48;;;8.68;;
47335;SDS011;33068;51.990;5.926;2022-10-26T04:35:01;17.05;;;10.02;;
47335;SDS011;33068;51.990;5.926;2022-10-26T04:37:28;14.07;;;8.02;;
47335;SDS011;33068;51.990;5.926;2022-10-26T04:39:55;17.98;;;8.18;;
47335;SDS011;33068;51.990;5.926;2022-10-26T04:42:23;14.40;;;8.77;;
47335;SDS011;33068;51.990;5.926;2022-10-26T04:44:50;16.95;;;9.20;;
47335;SDS011;33068;51.990;5.926;2022-10-26T04:47:18;15.07;;;8.82;;
47335;SDS011;33068;51.990;5.926;2022-10-26T04:49:45;18.35;;;9.40;;
47335;SDS011;33068;51.990;5.926;2022-10-26T04:52:12;12.40;;;8.18;;
47335;SDS011;33068;51.990;5.926;2022-10-26T04:54:39;22.88;;;8.80;;
47335;SDS011;33068;51.990;5.926;2022-10-26T04:57:06;21.92;;;9.52;;
47335;SDS011;33068;51.990;5.926;2022-10-26T04:59:33;15.50;;;9.13;;
47335;SDS011;33068;51.990;5.926;2022-10-26T05:02:00;17.27;;;9.68;;
47335;SDS011;33068;51.990;5.926;2022-10-26T05:04:29;14.85;;;8.88;;
47335;SDS011;33068;51.990;5.926;2022-10-26T05:06:56;14.70;;;9.63;;
47335;SDS011;33068;51.990;5.926;2022-10-26T05:09:23;17.50;;;9.60;;
47335;SDS011;33068;51.990;5.926;2022-10-26T05:11:50;17.10;;;8.73;;
47335;SDS011;33068;51.990;5.926;2022-10-26T05:14:17;19.17;;;10.20;;
47335;SDS011;33068;51.990;5.926;2022-10-26T05:16:44;16.17;;;9.27;;
47335;SDS011;33068;51.990;5.926;2022-10-26T05:19:11;15.48;;;9.70;;
47335;SDS011;33068;51.990;5.926;2022-10-26T05:21:39;16.40;;;9.50;;
47335;SDS011;33068;51.990;5.926;2022-10-26T05:24:06;18.73;;;9.80;;
47335;SDS011;33068;51.990;5.926;2022-10-26T05:26:34;19.15;;;9.77;;
47335;SDS011;33068;51.990;5.926;2022-10-26T05:29:01;17.38;;;9.10;;
47335;SDS011;33068;51.990;5.926;2022-10-26T05:31:28;22.25;;;10.05;;
47335;SDS011;33068;51.990;5.926;2022-10-26T05:33:55;16.25;;;9.10;;
47335;SDS011;33068;51.990;5.926;2022-10-26T05:36:22;18.67;;;9.27;;
47335;SDS011;33068;51.990;5.926;2022-10-26T05:38:50;16.30;;;8.82;;
47335;SDS011;33068;51.990;5.926;2022-10-26T05:41:18;13.25;;;8.45;;
47335;SDS011;33068;51.990;5.926;2022-10-26T05:43:45;15.57;;;8.75;;
47335;SDS011;33068;51.990;5.926;2022-10-26T05:46:13;16.48;;;8.80;;
47335;SDS011;33068;51.990;5.926;2022-10-26T05:48:40;18.65;;;8.93;;
47335;SDS011;33068;51.990;5.926;2022-10-26T05:51:07;16.15;;;8.50;;
47335;SDS011;33068;51.990;5.926;2022-10-26T05:53:34;20.88;;;8.32;;
47335;SDS011;33068;51.990;5.926;2022-10-26T05:56:03;13.05;;;7.40;;
47335;SDS011;33068;51.990;5.926;2022-10-26T05:58:44;16.35;;;8.27;;
47335;SDS011;33068;51.990;5.926;2022-10-26T06:01:12;14.80;;;8.10;;
47335;SDS011;33068;51.990;5.926;2022-10-26T06:03:54;14.15;;;7.45;;
47335;SDS011;33068;51.990;5.926;2022-10-26T06:06:38;11.90;;;7.20;;
47335;SDS011;33068;51.990;5.926;2022-10-26T06:09:08;10.82;;;6.60;;
47335;SDS011;33068;51.990;5.926;2022-10-26T06:11:37;16.95;;;7.35;;
47335;SDS011;33068;51.990;5.926;2022-10-26T06:14:05;15.57;;;7.93;;
47335;SDS011;33068;51.990;5.926;2022-10-26T06:16:35;17.10;;;7.90;;
47335;SDS011;33068;51.990;5.926;2022-10-26T06:19:15;16.67;;;7.35;;
47335;SDS011;33068;51.990;5.926;2022-10-26T06:21:54;19.40;;;8.68;;
47335;SDS011;33068;51.990;5.926;2022-10-26T06:24:31;18.25;;;7.57;;
47335;SDS011;33068;51.990;5.926;2022-10-26T06:27:11;21.85;;;7.25;;
47335;SDS011;33068;51.990;5.926;2022-10-26T06:29:49;13.63;;;7.35;;
47335;SDS011;33068;51.990;5.926;2022-10-26T06:32:21;13.02;;;7.03;;
47335;SDS011;33068;51.990;5.926;2022-10-26T06:34:49;13.73;;;7.72;;
47335;SDS011;33068;51.990;5.926;2022-10-26T06:37:19;14.48;;;7.72;;
47335;SDS011;33068;51.990;5.926;2022-10-26T06:39:48;17.58;;;7.15;;
47335;SDS011;33068;51.990;5.926;2022-10-26T06:42:18;15.05;;;6.97;;
47335;SDS011;33068;51.990;5.926;2022-10-26T06:44:45;15.68;;;6.50;;
47335;SDS011;33068;51.990;5.926;2022-10-26T06:47:15;12.32;;;6.47;;
47335;SDS011;33068;51.990;5.926;2022-10-26T06:49:52;13.35;;;6.50;;
47335;SDS011;33068;51.990;5.926;2022-10-26T06:52:26;13.02;;;6.65;;
47335;SDS011;33068;51.990;5.926;2022-10-26T06:54:58;14.73;;;6.30;;
47335;SDS011;33068;51.990;5.926;2022-10-26T06:57:30;12.65;;;6.95;;
47335;SDS011;33068;51.990;5.926;2022-10-26T07:00:01;18.25;;;6.78;;
47335;SDS011;33068;51.990;5.926;2022-10-26T07:02:32;12.98;;;6.65;;
47335;SDS011;33068;51.990;5.926;2022-10-26T07:04:59;14.80;;;7.32;;
47335;SDS011;33068;51.990;5.926;2022-10-26T07:07:29;11.02;;;6.22;;
47335;SDS011;33068;51.990;5.926;2022-10-26T07:09:57;8.98;;;6.35;;
47335;SDS011;33068;51.990;5.926;2022-10-26T07:12:24;15.35;;;6.78;;
47335;SDS011;33068;51.990;5.926;2022-10-26T07:14:53;13.23;;;6.35;;
47335;SDS011;33068;51.990;5.926;2022-10-26T07:17:20;13.95;;;6.43;;
47335;SDS011;33068;51.990;5.926;2022-10-26T07:19:47;9.98;;;6.10;;
47335;SDS011;33068;51.990;5.926;2022-10-26T07:22:14;9.48;;;5.90;;
47335;SDS011;33068;51.990;5.926;2022-10-26T07:24:41;12.20;;;6.30;;
47335;SDS011;33068;51.990;5.926;2022-10-26T07:27:08;11.65;;;6.43;;
47335;SDS011;33068;51.990;5.926;2022-10-26T07:29:35;13.50;;;6.25;;
47335;SDS011;33068;51.990;5.926;2022-10-26T07:32:04;11.40;;;6.28;;
47335;SDS011;33068;51.990;5.926;2022-10-26T07:34:31;12.20;;;5.90;;
47335;SDS011;33068;51.990;5.926;2022-10-26T07:36:59;11.50;;;5.82;;
47335;SDS011;33068;51.990;5.926;2022-10-26T07:39:29;12.35;;;5.72;;
47335;SDS011;33068;51.990;5.926;2022-10-26T07:41:57;13.02;;;6.25;;
47335;SDS011;33068;51.990;5.926;2022-10-26T07:44:24;11.10;;;6.35;;
47335;SDS011;33068;51.990;5.926;2022-10-26T07:46:51;14.25;;;6.35;;
47335;SDS011;33068;51.990;5.926;2022-10-26T07:49:20;10.85;;;6.50;;
47335;SDS011;33068;51.990;5.926;2022-10-26T07:51:46;9.65;;;6.43;;
47335;SDS011;33068;51.990;5.926;2022-10-26T07:54:14;9.45;;;5.50;;
47335;SDS011;33068;51.990;5.926;2022-10-26T07:56:41;9.70;;;5.82;;
47335;SDS011;33068;51.990;5.926;2022-10-26T07:59:09;12.70;;;5.90;;
47335;SDS011;33068;51.990;5.926;2022-10-26T08:01:36;12.35;;;5.35;;
47335;SDS011;33068;51.990;5.926;2022-10-26T08:04:03;10.65;;;6.25;;
47335;SDS011;33068;51.990;5.926;2022-10-26T08:06:32;11.50;;;6.05;;
47335;SDS011;33068;51.990;5.926;2022-10-26T08:08:59;6.68;;;4.93;;
47335;SDS011;33068;51.990;5.926;2022-10-26T08:11:26;11.15;;;5.78;;
47335;SDS011;33068;51.990;5.926;2022-10-26T08:13:53;9.48;;;5.47;;
47335;SDS011;33068;51.990;5.926;2022-10-26T08:16:21;9.15;;;5.38;;
47335;SDS011;33068;51.990;5.926;2022-10-26T08:18:50;9.27;;;5.38;;
47335;SDS011;33068;51.990;5.926;2022-10-26T08:21:17;13.75;;;5.95;;
47335;SDS011;33068;51.990;5.926;2022-10-26T08:23:45;7.93;;;5.03;;
47335;SDS011;33068;51.990;5.926;2022-10-26T08:26:12;9.68;;;5.30;;
47335;SDS011;33068;51.990;5.926;2022-10-26T08:28:39;8.05;;;5.53;;
47335;SDS011;33068;51.990;5.926;2022-10-26T08:31:06;10.85;;;4.55;;
47335;SDS011;33068;51.990;5.926;2022-10-26T08:33:33;7.47;;;4.63;;
47335;SDS011;33068;51.990;5.926;2022-10-26T08:36:01;7.63;;;4.68;;
47335;SDS011;33068;51.990;5.926;2022-10-26T08:38:30;9.52;;;4.60;;
47335;SDS011;33068;51.990;5.926;2022-10-26T08:41:04;8.85;;;4.63;;
47335;SDS011;33068;51.990;5.926;2022-10-26T08:43:32;9.20;;;4.47;;
47335;SDS011;33068;51.990;5.926;2022-10-26T08:46:07;10.93;;;4.43;;
47335;SDS011;33068;51.990;5.926;2022-10-26T08:48:39;11.38;;;4.22;;
47335;SDS011;33068;51.990;5.926;2022-10-26T08:51:11;8.95;;;3.78;;
47335;SDS011;33068;51.990;5.926;2022-10-26T08:53:41;5.82;;;3.10;;
47335;SDS011;33068;51.990;5.926;2022-10-26T08:56:17;7.97;;;3.05;;
47335;SDS011;33068;51.990;5.926;2022-10-26T08:58:50;5.70;;;2.20;;
47335;SDS011;33068;51.990;5.926;2022-10-26T09:01:21;8.98;;;1.88;;
47335;SDS011;33068;51.990;5.926;2022-10-26T09:03:48;4.80;;;2.20;;
47335;SDS011;33068;51.990;5.926;2022-10-26T09:06:20;3.03;;;1.90;;
47335;SDS011;33068;51.990;5.926;2022-10-26T09:08:56;4.68;;;1.85;;
47335;SDS011;33068;51.990;5.926;2022-10-26T09:11:47;7.03;;;2.97;;
47335;SDS011;33068;51.990;5.926;2022-10-26T09:14:27;5.43;;;1.90;;
47335;SDS011;33068;51.990;5.926;2022-10-26T09:17:06;6.82;;;1.60;;
47335;SDS011;33068;51.990;5.926;2022-10-26T09:19:58;5.13;;;1.40;;
47335;SDS011;33068;51.990;5.926;2022-10-26T09:22:37;5.35;;;1.73;;
47335;SDS011;33068;51.990;5.926;2022-10-26T09:25:12;2.97;;;1.30;;
47335;SDS011;33068;51.990;5.926;2022-10-26T09:27:45;3.70;;;1.23;;
47335;SDS011;33068;51.990;5.926;2022-10-26T09:30:16;2.90;;;1.48;;
47335;SDS011;33068;51.990;5.926;2022-10-26T09:32:45;3.05;;;1.45;;
47335;SDS011;33068;51.990;5.926;2022-10-26T09:35:14;7.93;;;1.45;;
47335;SDS011;33068;51.990;5.926;2022-10-26T09:37:45;2.42;;;1.00;;
47335;SDS011;33068;51.990;5.926;2022-10-26T09:40:17;5.85;;;1.55;;
47335;SDS011;33068;51.990;5.926;2022-10-26T09:42:53;5.72;;;1.50;;
47335;SDS011;33068;51.990;5.926;2022-10-26T09:45:24;5.72;;;1.63;;
47335;SDS011;33068;51.990;5.926;2022-10-26T09:47:55;2.55;;;1.85;;
47335;SDS011;33068;51.990;5.926;2022-10-26T09:50:27;4.72;;;1.83;;
47335;SDS011;33068;51.990;5.926;2022-10-26T09:52:57;4.90;;;1.83;;
47335;SDS011;33068;51.990;5.926;2022-10-26T09:55:24;8.93;;;1.83;;
47335;SDS011;33068;51.990;5.926;2022-10-26T09:57:55;9.25;;;1.85;;
47335;SDS011;33068;51.990;5.926;2022-10-26T10:00:24;4.20;;;1.50;;
47335;SDS011;33068;51.990;5.926;2022-10-26T10:02:53;7.50;;;2.33;;
47335;SDS011;33068;51.990;5.926;2022-10-26T10:05:25;3.10;;;1.70;;
47335;SDS011;33068;51.990;5.926;2022-10-26T10:08:13;5.30;;;1.75;;
47335;SDS011;33068;51.990;5.926;2022-10-26T10:13:36;7.00;;;2.35;;
47335;SDS011;33068;51.990;5.926;2022-10-26T10:16:05;12.32;;;2.15;;
47335;SDS011;33068;51.990;5.926;2022-10-26T10:18:37;3.78;;;2.15;;
47335;SDS011;33068;51.990;5.926;2022-10-26T10:21:05;9.60;;;2.10;;
47335;SDS011;33068;51.990;5.926;2022-10-26T10:23:35;7.38;;;1.83;;
47335;SDS011;33068;51.990;5.926;2022-10-26T10:26:11;7.80;;;1.77;;
47335;SDS011;33068;51.990;5.926;2022-10-26T10:28:40;4.18;;;1.90;;
47335;SDS011;33068;51.990;5.926;2022-10-26T10:31:17;9.93;;;1.90;;
47335;SDS011;33068;51.990;5.926;2022-10-26T10:33:46;5.28;;;1.45;;
47335;SDS011;33068;51.990;5.926;2022-10-26T10:36:14;4.75;;;1.98;;
47335;SDS011;33068;51.990;5.926;2022-10-26T10:38:44;7.75;;;1.95;;
47335;SDS011;33068;51.990;5.926;2022-10-26T10:41:20;6.20;;;2.22;;
47335;SDS011;33068;51.990;5.926;2022-10-26T10:43:54;3.42;;;1.95;;
47335;SDS011;33068;51.990;5.926;2022-10-26T10:46:31;6.35;;;1.70;;
47335;SDS011;33068;51.990;5.926;2022-10-26T10:49:02;7.22;;;1.75;;
47335;SDS011;33068;51.990;5.926;2022-10-26T10:51:34;5.88;;;1.70;;
47335;SDS011;33068;51.990;5.926;2022-10-26T10:54:04;5.50;;;2.13;;
47335;SDS011;33068;51.990;5.926;2022-10-26T10:56:37;3.00;;;1.73;;
47335;SDS011;33068;51.990;5.926;2022-10-26T10:59:17;3.95;;;1.80;;
47335;SDS011;33068;51.990;5.926;2022-10-26T11:01:57;2.83;;;1.40;;
47335;SDS011;33068;51.990;5.926;2022-10-26T11:04:46;5.32;;;1.55;;
47335;SDS011;33068;51.990;5.926;2022-10-26T11:07:40;3.53;;;2.13;;
47335;SDS011;33068;51.990;5.926;2022-10-26T11:10:12;5.38;;;1.85;;
47335;SDS011;33068;51.990;5.926;2022-10-26T11:12:45;5.88;;;2.15;;
47335;SDS011;33068;51.990;5.926;2022-10-26T11:15:17;4.78;;;2.13;;
47335;SDS011;33068;51.990;5.926;2022-10-26T11:17:49;3.03;;;1.55;;
47335;SDS011;33068;51.990;5.926;2022-10-26T11:20:21;10.48;;;2.20;;
47335;SDS011;33068;51.990;5.926;2022-10-26T11:22:57;5.57;;;1.65;;
47335;SDS011;33068;51.990;5.926;2022-10-26T11:25:32;2.60;;;1.50;;
47335;SDS011;33068;51.990;5.926;2022-10-26T11:28:03;5.13;;;1.50;;
47335;SDS011;33068;51.990;5.926;2022-10-26T11:30:39;6.93;;;1.57;;
47335;SDS011;33068;51.990;5.926;2022-10-26T11:33:10;7.68;;;1.92;;
47335;SDS011;33068;51.990;5.926;2022-10-26T11:35:43;5.00;;;1.33;;
47335;SDS011;33068;51.990;5.926;2022-10-26T11:38:18;12.87;;;1.97;;
47335;SDS011;33068;51.990;5.926;2022-10-26T11:40:50;2.78;;;1.40;;
47335;SDS011;33068;51.990;5.926;2022-10-26T11:43:24;5.90;;;1.52;;
47335;SDS011;33068;51.990;5.926;2022-10-26T11:46:02;4.70;;;1.30;;
47335;SDS011;33068;51.990;5.926;2022-10-26T11:48:33;5.03;;;1.50;;
47335;SDS011;33068;51.990;5.926;2022-10-26T11:51:06;5.68;;;1.67;;
47335;SDS011;33068;51.990;5.926;2022-10-26T11:53:43;3.58;;;1.30;;
47335;SDS011;33068;51.990;5.926;2022-10-26T11:56:14;12.70;;;2.30;;
47335;SDS011;33068;51.990;5.926;2022-10-26T11:58:48;7.82;;;1.50;;
47335;SDS011;33068;51.990;5.926;2022-10-26T12:01:17;4.38;;;1.48;;
47335;SDS011;33068;51.990;5.926;2022-10-26T12:03:45;5.30;;;2.33;;
47335;SDS011;33068;51.990;5.926;2022-10-26T12:06:17;3.17;;;1.48;;
47335;SDS011;33068;51.990;5.926;2022-10-26T12:08:46;4.07;;;1.65;;
47335;SDS011;33068;51.990;5.926;2022-10-26T12:11:22;6.55;;;1.85;;
47335;SDS011;33068;51.990;5.926;2022-10-26T12:14:01;5.75;;;1.85;;
47335;SDS011;33068;51.990;5.926;2022-10-26T12:16:40;4.38;;;1.60;;
47335;SDS011;33068;51.990;5.926;2022-10-26T12:19:14;7.03;;;2.03;;
47335;SDS011;33068;51.990;5.926;2022-10-26T12:21:47;3.15;;;1.58;;
47335;SDS011;33068;51.990;5.926;2022-10-26T12:24:23;5.68;;;1.77;;
47335;SDS011;33068;51.990;5.926;2022-10-26T12:26:53;2.35;;;1.80;;
47335;SDS011;33068;51.990;5.926;2022-10-26T12:29:30;9.35;;;2.67;;
47335;SDS011;33068;51.990;5.926;2022-10-26T12:32:17;7.60;;;1.85;;
47335;SDS011;33068;51.990;5.926;2022-10-26T12:41:19;11.27;;;2.40;;
47335;SDS011;33068;51.990;5.926;2022-10-26T12:43:57;4.05;;;1.52;;
47335;SDS011;33068;51.990;5.926;2022-10-26T12:46:38;10.45;;;2.20;;
47335;SDS011;33068;51.990;5.926;2022-10-26T13:04:29;4.32;;;1.65;;
47335;SDS011;33068;51.990;5.926;2022-10-26T13:07:21;7.03;;;2.30;;
47335;SDS011;33068;51.990;5.926;2022-10-26T13:09:53;7.20;;;1.73;;
47335;SDS011;33068;51.990;5.926;2022-10-26T13:12:25;5.78;;;1.70;;
47335;SDS011;33068;51.990;5.926;2022-10-26T13:15:01;6.27;;;1.80;;
47335;SDS011;33068;51.990;5.926;2022-10-26T13:17:32;10.43;;;1.48;;
47335;SDS011;33068;51.990;5.926;2022-10-26T13:20:00;3.03;;;1.77;;
47335;SDS011;33068;51.990;5.926;2022-10-26T13:22:29;5.97;;;1.40;;
47335;SDS011;33068;51.990;5.926;2022-10-26T13:24:58;6.65;;;2.17;;
47335;SDS011;33068;51.990;5.926;2022-10-26T13:27:41;7.13;;;1.20;;
47335;SDS011;33068;51.990;5.926;2022-10-26T13:30:18;3.50;;;1.70;;
47335;SDS011;33068;51.990;5.926;2022-10-26T13:33:13;2.95;;;2.17;;
47335;SDS011;33068;51.990;5.926;2022-10-26T13:35:46;5.25;;;1.70;;
47335;SDS011;33068;51.990;5.926;2022-10-26T13:38:14;3.88;;;1.80;;
47335;SDS011;33068;51.990;5.926;2022-10-26T13:40:48;6.30;;;2.75;;
47335;SDS011;33068;51.990;5.926;2022-10-26T13:43:22;4.47;;;2.22;;
47335;SDS011;33068;51.990;5.926;2022-10-26T13:45:52;8.13;;;2.83;;
47335;SDS011;33068;51.990;5.926;2022-10-26T13:48:22;4.38;;;2.17;;
47335;SDS011;33068;51.990;5.926;2022-10-26T13:53:27;3.08;;;2.33;;
47335;SDS011;33068;51.990;5.926;2022-10-26T13:56:07;3.05;;;2.22;;
47335;SDS011;33068;51.990;5.926;2022-10-26T13:58:42;4.57;;;2.83;;
47335;SDS011;33068;51.990;5.926;2022-10-26T14:01:14;3.10;;;2.53;;
47335;SDS011;33068;51.990;5.926;2022-10-26T14:03:46;3.75;;;2.65;;
47335;SDS011;33068;51.990;5.926;2022-10-26T14:06:15;4.90;;;2.22;;
47335;SDS011;33068;51.990;5.926;2022-10-26T14:08:48;3.75;;;2.78;;
47335;SDS011;33068;51.990;5.926;2022-10-26T14:11:19;6.38;;;2.90;;
47335;SDS011;33068;51.990;5.926;2022-10-26T14:13:48;6.95;;;2.15;;
47335;SDS011;33068;51.990;5.926;2022-10-26T14:16:17;7.55;;;2.90;;
47335;SDS011;33068;51.990;5.926;2022-10-26T14:18:45;4.55;;;2.45;;
47335;SDS011;33068;51.990;5.926;2022-10-26T14:21:14;7.93;;;3.05;;
47335;SDS011;33068;51.990;5.926;2022-10-26T14:23:44;4.60;;;2.40;;
47335;SDS011;33068;51.990;5.926;2022-10-26T14:26:19;3.80;;;2.30;;
47335;SDS011;33068;51.990;5.926;2022-10-26T14:28:47;4.63;;;2.22;;
47335;SDS011;33068;51.990;5.926;2022-10-26T14:31:23;2.80;;;2.10;;
47335;SDS011;33068;51.990;5.926;2022-10-26T14:33:54;4.95;;;2.45;;
47335;SDS011;33068;51.990;5.926;2022-10-26T14:36:24;7.53;;;2.35;;
47335;SDS011;33068;51.990;5.926;2022-10-26T14:38:57;8.63;;;2.15;;
47335;SDS011;33068;51.990;5.926;2022-10-26T14:41:28;8.15;;;1.98;;
47335;SDS011;33068;51.990;5.926;2022-10-26T14:43:56;1.75;;;1.40;;
47335;SDS011;33068;51.990;5.926;2022-10-26T14:46:25;3.45;;;1.60;;
47335;SDS011;33068;51.990;5.926;2022-10-26T14:48:58;3.00;;;1.50;;
47335;SDS011;33068;51.990;5.926;2022-10-26T14:51:27;3.28;;;1.48;;
47335;SDS011;33068;51.990;5.926;2022-10-26T14:53:56;8.95;;;1.58;;
47335;SDS011;33068;51.990;5.926;2022-10-26T14:56:27;5.28;;;1.45;;
47335;SDS011;33068;51.990;5.926;2022-10-26T14:58:57;5.13;;;1.65;;
47335;SDS011;33068;51.990;5.926;2022-10-26T15:01:25;3.72;;;1.20;;
47335;SDS011;33068;51.990;5.926;2022-10-26T15:03:54;3.35;;;1.20;;
47335;SDS011;33068;51.990;5.926;2022-10-26T15:06:29;1.67;;;0.90;;
47335;SDS011;33068;51.990;5.926;2022-10-26T15:09:04;1.73;;;1.13;;
47335;SDS011;33068;51.990;5.926;2022-10-26T15:11:34;3.88;;;1.15;;
47335;SDS011;33068;51.990;5.926;2022-10-26T15:14:09;3.87;;;0.90;;
47335;SDS011;33068;51.990;5.926;2022-10-26T15:16:37;2.10;;;0.90;;
47335;SDS011;33068;51.990;5.926;2022-10-26T15:19:06;3.42;;;1.08;;
47335;SDS011;33068;51.990;5.926;2022-10-26T15:21:35;2.05;;;0.90;;
47335;SDS011;33068;51.990;5.926;2022-10-26T15:24:11;2.72;;;1.10;;
47335;SDS011;33068;51.990;5.926;2022-10-26T15:26:52;2.70;;;1.00;;
47335;SDS011;33068;51.990;5.926;2022-10-26T15:29:39;5.85;;;0.90;;
47335;SDS011;33068;51.990;5.926;2022-10-26T15:37:56;4.53;;;1.00;;
47335;SDS011;33068;51.990;5.926;2022-10-26T15:40:31;2.67;;;0.80;;